sensor_id;sensor_type;location;lat;lon;timestamp;P1;durP1;ratioP1;P2;durP2;ratioP2
7215;SDS011;3649;48.798;9.798;2023-01-19T00:00:54;13.27;;;8.80;;
7215;SDS011;3649;48.798;9.798;2023-01-19T00:03:20;8.73;;;7.83;;
7215;SDS011;3649;48.798;9.798;2023-01-19T00:05:47;13.40;;;8.30;;
7215;SDS011;3649;48.798;9.798;2023-01-19T00:08:14;9.70;;;6.93;;
7215;SDS011;3649;48.798;9.798;2023-01-19T00:10:43;10.27;;;8.03;;
7215;SDS011;3649;48.798;9.798;2023-01-19T00:13:12;9.07;;;7.53;;
7215;SDS011;3649;48.798;9.798;2023-01-19T00:15:40;10.27;;;7.90;;
7215;SDS011;3649;48.798;9.798;2023-01-19T00:18:06;8.97;;;7.57;;
7215;SDS011;3649;48.798;9.798;2023-01-19T00:20:36;10.73;;;8.10;;
7215;SDS011;3649;48.798;9.798;2023-01-19T00:23:03;12.57;;;9.10;;
7215;SDS011;3649;48.798;9.798;2023-01-19T00:25:32;12.50;;;7.93;;
7215;SDS011;3649;48.798;9.798;2023-01-19T00:27:59;8.17;;;7.23;;
7215;SDS011;3649;48.798;9.798;2023-01-19T00:30:27;10.07;;;8.00;;
7215;SDS011;3649;48.798;9.798;2023-01-19T00:32:54;13.40;;;8.67;;
7215;SDS011;3649;48.798;9.798;2023-01-19T00:35:21;9.23;;;8.03;;
7215;SDS011;3649;48.798;9.798;2023-01-19T00:37:47;10.47;;;8.60;;
7215;SDS011;3649;48.798;9.798;2023-01-19T00:40:14;11.10;;;8.27;;
7215;SDS011;3649;48.798;9.798;2023-01-19T00:42:42;10.37;;;8.03;;
7215;SDS011;3649;48.798;9.798;2023-01-19T00:45:17;8.83;;;7.93;;
7215;SDS011;3649;48.798;9.798;2023-01-19T00:47:46;11.40;;;8.87;;
7215;SDS011;3649;48.798;9.798;2023-01-19T00:50:15;9.03;;;7.60;;
7215;SDS011;3649;48.798;9.798;2023-01-19T00:52:43;7.87;;;7.07;;
7215;SDS011;3649;48.798;9.798;2023-01-19T00:55:11;9.17;;;7.97;;
7215;SDS011;3649;48.798;9.798;2023-01-19T00:57:39;9.43;;;8.10;;
7215;SDS011;3649;48.798;9.798;2023-01-19T01:00:11;9.67;;;8.67;;
7215;SDS011;3649;48.798;9.798;2023-01-19T01:02:41;14.17;;;9.57;;
7215;SDS011;3649;48.798;9.798;2023-01-19T01:05:09;10.00;;;9.00;;
7215;SDS011;3649;48.798;9.798;2023-01-19T01:07:37;11.13;;;8.63;;
7215;SDS011;3649;48.798;9.798;2023-01-19T01:10:10;13.33;;;9.10;;
7215;SDS011;3649;48.798;9.798;2023-01-19T01:12:37;11.40;;;9.33;;
7215;SDS011;3649;48.798;9.798;2023-01-19T01:15:08;10.57;;;8.23;;
7215;SDS011;3649;48.798;9.798;2023-01-19T01:17:43;11.43;;;7.93;;
7215;SDS011;3649;48.798;9.798;2023-01-19T01:20:23;9.77;;;8.87;;
7215;SDS011;3649;48.798;9.798;2023-01-19T01:22:52;10.13;;;8.40;;
7215;SDS011;3649;48.798;9.798;2023-01-19T01:25:20;9.60;;;7.87;;
7215;SDS011;3649;48.798;9.798;2023-01-19T01:27:52;11.00;;;8.10;;
7215;SDS011;3649;48.798;9.798;2023-01-19T01:30:20;8.57;;;7.67;;
7215;SDS011;3649;48.798;9.798;2023-01-19T01:32:46;11.00;;;8.13;;
7215;SDS011;3649;48.798;9.798;2023-01-19T01:35:14;9.67;;;8.67;;
7215;SDS011;3649;48.798;9.798;2023-01-19T01:37:45;10.03;;;7.87;;
7215;SDS011;3649;48.798;9.798;2023-01-19T01:40:15;8.87;;;7.93;;
7215;SDS011;3649;48.798;9.798;2023-01-19T01:42:45;10.77;;;8.20;;
7215;SDS011;3649;48.798;9.798;2023-01-19T01:45:32;9.33;;;7.57;;
7215;SDS011;3649;48.798;9.798;2023-01-19T01:48:02;8.40;;;7.60;;
7215;SDS011;3649;48.798;9.798;2023-01-19T01:50:34;8.23;;;7.10;;
7215;SDS011;3649;48.798;9.798;2023-01-19T01:53:33;10.60;;;8.03;;
7215;SDS011;3649;48.798;9.798;2023-01-19T01:56:09;14.23;;;7.63;;
7215;SDS011;3649;48.798;9.798;2023-01-19T01:58:39;11.00;;;7.50;;
7215;SDS011;3649;48.798;9.798;2023-01-19T02:01:07;10.00;;;7.63;;
7215;SDS011;3649;48.798;9.798;2023-01-19T02:03:54;9.10;;;7.83;;
7215;SDS011;3649;48.798;9.798;2023-01-19T02:06:22;10.73;;;9.03;;
7215;SDS011;3649;48.798;9.798;2023-01-19T02:08:52;8.57;;;7.77;;
7215;SDS011;3649;48.798;9.798;2023-01-19T02:11:45;10.07;;;7.43;;
7215;SDS011;3649;48.798;9.798;2023-01-19T02:14:33;10.33;;;8.17;;
7215;SDS011;3649;48.798;9.798;2023-01-19T02:17:05;10.03;;;7.57;;
7215;SDS011;3649;48.798;9.798;2023-01-19T02:19:34;10.33;;;7.70;;
7215;SDS011;3649;48.798;9.798;2023-01-19T02:22:10;10.90;;;7.80;;
7215;SDS011;3649;48.798;9.798;2023-01-19T02:24:46;10.07;;;7.73;;
7215;SDS011;3649;48.798;9.798;2023-01-19T02:27:15;10.27;;;8.03;;
7215;SDS011;3649;48.798;9.798;2023-01-19T02:29:42;10.03;;;7.10;;
7215;SDS011;3649;48.798;9.798;2023-01-19T02:32:09;9.40;;;8.33;;
7215;SDS011;3649;48.798;9.798;2023-01-19T02:34:36;10.73;;;8.93;;
7215;SDS011;3649;48.798;9.798;2023-01-19T02:37:09;10.47;;;8.03;;
7215;SDS011;3649;48.798;9.798;2023-01-19T02:39:51;9.67;;;7.50;;
7215;SDS011;3649;48.798;9.798;2023-01-19T02:42:28;10.60;;;7.47;;
7215;SDS011;3649;48.798;9.798;2023-01-19T02:44:58;9.20;;;8.03;;
7215;SDS011;3649;48.798;9.798;2023-01-19T02:47:25;7.70;;;6.90;;
7215;SDS011;3649;48.798;9.798;2023-01-19T02:49:53;9.03;;;7.67;;
7215;SDS011;3649;48.798;9.798;2023-01-19T02:52:24;9.40;;;8.37;;
7215;SDS011;3649;48.798;9.798;2023-01-19T03:03:31;10.57;;;7.83;;
7215;SDS011;3649;48.798;9.798;2023-01-19T03:06:15;9.60;;;7.93;;
7215;SDS011;3649;48.798;9.798;2023-01-19T03:12:21;7.47;;;6.73;;
7215;SDS011;3649;48.798;9.798;2023-01-19T03:15:07;10.67;;;8.03;;
7215;SDS011;3649;48.798;9.798;2023-01-19T03:17:48;9.53;;;7.77;;
7215;SDS011;3649;48.798;9.798;2023-01-19T03:20:18;12.33;;;8.23;;
7215;SDS011;3649;48.798;9.798;2023-01-19T03:22:48;9.20;;;7.67;;
7215;SDS011;3649;48.798;9.798;2023-01-19T03:25:18;9.10;;;7.80;;
7215;SDS011;3649;48.798;9.798;2023-01-19T03:27:48;10.50;;;7.50;;
7215;SDS011;3649;48.798;9.798;2023-01-19T03:30:24;9.53;;;7.73;;
7215;SDS011;3649;48.798;9.798;2023-01-19T03:32:56;10.07;;;7.37;;
7215;SDS011;3649;48.798;9.798;2023-01-19T03:35:29;8.90;;;8.00;;
7215;SDS011;3649;48.798;9.798;2023-01-19T03:37:58;9.23;;;7.60;;
7215;SDS011;3649;48.798;9.798;2023-01-19T03:40:28;13.77;;;7.73;;
7215;SDS011;3649;48.798;9.798;2023-01-19T03:42:57;8.03;;;7.20;;
7215;SDS011;3649;48.798;9.798;2023-01-19T03:45:26;9.43;;;8.23;;
7215;SDS011;3649;48.798;9.798;2023-01-19T03:47:53;9.83;;;7.80;;
7215;SDS011;3649;48.798;9.798;2023-01-19T03:50:23;9.90;;;7.43;;
7215;SDS011;3649;48.798;9.798;2023-01-19T03:55:40;9.57;;;8.57;;
7215;SDS011;3649;48.798;9.798;2023-01-19T03:58:08;11.60;;;8.40;;
7215;SDS011;3649;48.798;9.798;2023-01-19T04:00:35;9.27;;;8.27;;
7215;SDS011;3649;48.798;9.798;2023-01-19T04:03:03;8.53;;;7.30;;
7215;SDS011;3649;48.798;9.798;2023-01-19T04:05:31;8.87;;;7.97;;
7215;SDS011;3649;48.798;9.798;2023-01-19T04:07:58;9.30;;;8.17;;
7215;SDS011;3649;48.798;9.798;2023-01-19T04:10:25;7.57;;;6.87;;
7215;SDS011;3649;48.798;9.798;2023-01-19T04:12:55;12.43;;;7.93;;
7215;SDS011;3649;48.798;9.798;2023-01-19T04:15:24;8.97;;;7.53;;
7215;SDS011;3649;48.798;9.798;2023-01-19T04:17:51;8.60;;;7.70;;
7215;SDS011;3649;48.798;9.798;2023-01-19T04:20:18;10.50;;;7.43;;
7215;SDS011;3649;48.798;9.798;2023-01-19T04:22:46;8.97;;;7.60;;
7215;SDS011;3649;48.798;9.798;2023-01-19T04:25:14;9.17;;;8.23;;
7215;SDS011;3649;48.798;9.798;2023-01-19T04:27:41;11.00;;;7.93;;
7215;SDS011;3649;48.798;9.798;2023-01-19T04:30:08;10.07;;;8.03;;
7215;SDS011;3649;48.798;9.798;2023-01-19T04:32:35;9.37;;;7.93;;
7215;SDS011;3649;48.798;9.798;2023-01-19T04:35:02;8.43;;;7.50;;
7215;SDS011;3649;48.798;9.798;2023-01-19T04:37:29;9.13;;;7.77;;
7215;SDS011;3649;48.798;9.798;2023-01-19T04:39:56;12.20;;;7.30;;
7215;SDS011;3649;48.798;9.798;2023-01-19T04:42:22;10.87;;;7.57;;
7215;SDS011;3649;48.798;9.798;2023-01-19T04:44:49;11.07;;;8.40;;
7215;SDS011;3649;48.798;9.798;2023-01-19T04:47:17;8.60;;;7.40;;
7215;SDS011;3649;48.798;9.798;2023-01-19T04:49:44;8.03;;;7.23;;
7215;SDS011;3649;48.798;9.798;2023-01-19T04:52:11;9.73;;;7.43;;
7215;SDS011;3649;48.798;9.798;2023-01-19T04:54:38;8.57;;;7.13;;
7215;SDS011;3649;48.798;9.798;2023-01-19T04:57:04;10.73;;;7.83;;
7215;SDS011;3649;48.798;9.798;2023-01-19T04:59:31;8.93;;;7.63;;
7215;SDS011;3649;48.798;9.798;2023-01-19T05:01:58;11.73;;;7.40;;
7215;SDS011;3649;48.798;9.798;2023-01-19T05:04:25;11.93;;;8.17;;
7215;SDS011;3649;48.798;9.798;2023-01-19T05:06:52;12.20;;;8.07;;
7215;SDS011;3649;48.798;9.798;2023-01-19T05:09:19;9.87;;;8.20;;
7215;SDS011;3649;48.798;9.798;2023-01-19T05:11:46;10.57;;;7.10;;
7215;SDS011;3649;48.798;9.798;2023-01-19T05:14:12;12.93;;;8.07;;
7215;SDS011;3649;48.798;9.798;2023-01-19T05:16:39;10.10;;;7.97;;
7215;SDS011;3649;48.798;9.798;2023-01-19T05:19:06;12.17;;;8.73;;
7215;SDS011;3649;48.798;9.798;2023-01-19T05:21:33;11.50;;;9.33;;
7215;SDS011;3649;48.798;9.798;2023-01-19T05:23:59;11.63;;;8.43;;
7215;SDS011;3649;48.798;9.798;2023-01-19T05:26:26;11.07;;;9.63;;
7215;SDS011;3649;48.798;9.798;2023-01-19T05:28:53;10.97;;;8.57;;
7215;SDS011;3649;48.798;9.798;2023-01-19T05:31:20;11.27;;;8.73;;
7215;SDS011;3649;48.798;9.798;2023-01-19T05:33:47;10.57;;;9.13;;
7215;SDS011;3649;48.798;9.798;2023-01-19T05:36:15;9.47;;;8.43;;
7215;SDS011;3649;48.798;9.798;2023-01-19T05:38:41;11.53;;;10.33;;
7215;SDS011;3649;48.798;9.798;2023-01-19T05:41:08;11.53;;;9.90;;
7215;SDS011;3649;48.798;9.798;2023-01-19T05:43:35;9.73;;;8.67;;
7215;SDS011;3649;48.798;9.798;2023-01-19T05:46:02;10.73;;;9.63;;
7215;SDS011;3649;48.798;9.798;2023-01-19T05:48:30;16.13;;;13.30;;
7215;SDS011;3649;48.798;9.798;2023-01-19T05:50:58;29.30;;;20.63;;
7215;SDS011;3649;48.798;9.798;2023-01-19T05:53:25;27.23;;;16.10;;
7215;SDS011;3649;48.798;9.798;2023-01-19T05:55:57;17.53;;;10.67;;
7215;SDS011;3649;48.798;9.798;2023-01-19T05:58:25;15.83;;;9.80;;
7215;SDS011;3649;48.798;9.798;2023-01-19T06:00:52;10.40;;;9.23;;
7215;SDS011;3649;48.798;9.798;2023-01-19T06:03:19;14.00;;;9.30;;
7215;SDS011;3649;48.798;9.798;2023-01-19T06:05:46;11.33;;;8.53;;
7215;SDS011;3649;48.798;9.798;2023-01-19T06:08:15;12.77;;;10.17;;
7215;SDS011;3649;48.798;9.798;2023-01-19T06:10:43;12.83;;;9.40;;
7215;SDS011;3649;48.798;9.798;2023-01-19T06:13:09;12.63;;;9.67;;
7215;SDS011;3649;48.798;9.798;2023-01-19T06:15:36;14.93;;;9.80;;
7215;SDS011;3649;48.798;9.798;2023-01-19T06:18:03;16.17;;;10.37;;
7215;SDS011;3649;48.798;9.798;2023-01-19T06:20:30;13.10;;;10.17;;
7215;SDS011;3649;48.798;9.798;2023-01-19T06:22:56;15.77;;;11.30;;
7215;SDS011;3649;48.798;9.798;2023-01-19T06:25:24;12.73;;;9.73;;
7215;SDS011;3649;48.798;9.798;2023-01-19T06:27:51;14.17;;;9.80;;
7215;SDS011;3649;48.798;9.798;2023-01-19T06:30:18;12.60;;;9.77;;
7215;SDS011;3649;48.798;9.798;2023-01-19T06:32:45;11.67;;;8.97;;
7215;SDS011;3649;48.798;9.798;2023-01-19T06:35:12;15.23;;;9.33;;
7215;SDS011;3649;48.798;9.798;2023-01-19T06:37:40;14.57;;;9.80;;
7215;SDS011;3649;48.798;9.798;2023-01-19T06:40:07;12.53;;;9.60;;
7215;SDS011;3649;48.798;9.798;2023-01-19T06:42:34;14.13;;;10.77;;
7215;SDS011;3649;48.798;9.798;2023-01-19T06:45:01;12.47;;;9.20;;
7215;SDS011;3649;48.798;9.798;2023-01-19T06:47:28;11.53;;;9.40;;
7215;SDS011;3649;48.798;9.798;2023-01-19T06:49:55;10.83;;;9.03;;
7215;SDS011;3649;48.798;9.798;2023-01-19T06:52:22;11.53;;;9.27;;
7215;SDS011;3649;48.798;9.798;2023-01-19T06:54:49;15.93;;;11.03;;
7215;SDS011;3649;48.798;9.798;2023-01-19T06:57:16;19.23;;;11.93;;
7215;SDS011;3649;48.798;9.798;2023-01-19T06:59:43;13.40;;;10.87;;
7215;SDS011;3649;48.798;9.798;2023-01-19T07:02:10;14.10;;;11.60;;
7215;SDS011;3649;48.798;9.798;2023-01-19T07:04:53;15.40;;;10.73;;
7215;SDS011;3649;48.798;9.798;2023-01-19T07:07:20;15.73;;;10.47;;
7215;SDS011;3649;48.798;9.798;2023-01-19T07:09:47;12.67;;;9.60;;
7215;SDS011;3649;48.798;9.798;2023-01-19T07:12:13;12.63;;;9.70;;
7215;SDS011;3649;48.798;9.798;2023-01-19T07:14:41;15.33;;;10.33;;
7215;SDS011;3649;48.798;9.798;2023-01-19T07:17:08;11.90;;;10.20;;
7215;SDS011;3649;48.798;9.798;2023-01-19T07:19:35;12.63;;;10.80;;
7215;SDS011;3649;48.798;9.798;2023-01-19T07:22:01;21.47;;;14.60;;
7215;SDS011;3649;48.798;9.798;2023-01-19T07:24:28;18.37;;;13.37;;
7215;SDS011;3649;48.798;9.798;2023-01-19T07:26:56;17.27;;;12.50;;
7215;SDS011;3649;48.798;9.798;2023-01-19T07:29:23;30.27;;;21.57;;
7215;SDS011;3649;48.798;9.798;2023-01-19T07:31:50;24.37;;;16.47;;
7215;SDS011;3649;48.798;9.798;2023-01-19T07:34:19;21.23;;;15.43;;
7215;SDS011;3649;48.798;9.798;2023-01-19T07:36:46;16.97;;;13.27;;
7215;SDS011;3649;48.798;9.798;2023-01-19T07:39:13;18.37;;;13.73;;
7215;SDS011;3649;48.798;9.798;2023-01-19T07:41:40;20.33;;;13.93;;
7215;SDS011;3649;48.798;9.798;2023-01-19T07:44:07;18.40;;;12.93;;
7215;SDS011;3649;48.798;9.798;2023-01-19T07:46:34;23.87;;;13.47;;
7215;SDS011;3649;48.798;9.798;2023-01-19T07:49:01;19.40;;;13.40;;
7215;SDS011;3649;48.798;9.798;2023-01-19T07:51:28;19.33;;;13.63;;
7215;SDS011;3649;48.798;9.798;2023-01-19T07:53:55;22.27;;;14.40;;
7215;SDS011;3649;48.798;9.798;2023-01-19T07:56:23;27.33;;;17.50;;
7215;SDS011;3649;48.798;9.798;2023-01-19T07:58:52;21.97;;;15.50;;
7215;SDS011;3649;48.798;9.798;2023-01-19T08:01:28;24.13;;;15.43;;
7215;SDS011;3649;48.798;9.798;2023-01-19T08:03:56;19.20;;;14.27;;
7215;SDS011;3649;48.798;9.798;2023-01-19T08:06:26;16.30;;;11.10;;
7215;SDS011;3649;48.798;9.798;2023-01-19T08:08:59;15.40;;;11.03;;
7215;SDS011;3649;48.798;9.798;2023-01-19T08:11:26;21.77;;;12.30;;
7215;SDS011;3649;48.798;9.798;2023-01-19T08:13:53;15.73;;;11.63;;
7215;SDS011;3649;48.798;9.798;2023-01-19T08:16:20;18.70;;;12.37;;
7215;SDS011;3649;48.798;9.798;2023-01-19T08:18:47;12.00;;;10.60;;
7215;SDS011;3649;48.798;9.798;2023-01-19T08:21:13;12.03;;;9.87;;
7215;SDS011;3649;48.798;9.798;2023-01-19T08:23:41;14.20;;;10.93;;
7215;SDS011;3649;48.798;9.798;2023-01-19T08:26:23;14.37;;;12.13;;
7215;SDS011;3649;48.798;9.798;2023-01-19T08:28:55;13.00;;;10.43;;
7215;SDS011;3649;48.798;9.798;2023-01-19T08:31:24;14.57;;;9.47;;
7215;SDS011;3649;48.798;9.798;2023-01-19T08:33:52;14.77;;;10.50;;
7215;SDS011;3649;48.798;9.798;2023-01-19T08:36:20;17.27;;;12.37;;
7215;SDS011;3649;48.798;9.798;2023-01-19T08:38:47;14.03;;;10.87;;
7215;SDS011;3649;48.798;9.798;2023-01-19T08:41:15;12.27;;;10.30;;
7215;SDS011;3649;48.798;9.798;2023-01-19T08:43:42;16.57;;;12.20;;
7215;SDS011;3649;48.798;9.798;2023-01-19T08:46:11;16.17;;;12.40;;
7215;SDS011;3649;48.798;9.798;2023-01-19T08:48:42;14.83;;;11.03;;
7215;SDS011;3649;48.798;9.798;2023-01-19T08:51:13;15.20;;;11.73;;
7215;SDS011;3649;48.798;9.798;2023-01-19T08:53:41;15.50;;;10.70;;
7215;SDS011;3649;48.798;9.798;2023-01-19T08:56:11;19.07;;;11.27;;
7215;SDS011;3649;48.798;9.798;2023-01-19T08:58:40;16.70;;;12.37;;
7215;SDS011;3649;48.798;9.798;2023-01-19T09:01:08;13.83;;;11.03;;
7215;SDS011;3649;48.798;9.798;2023-01-19T09:03:36;10.87;;;9.60;;
7215;SDS011;3649;48.798;9.798;2023-01-19T09:06:06;12.47;;;9.73;;
7215;SDS011;3649;48.798;9.798;2023-01-19T09:08:34;13.77;;;10.47;;
7215;SDS011;3649;48.798;9.798;2023-01-19T09:11:01;16.20;;;11.30;;
7215;SDS011;3649;48.798;9.798;2023-01-19T09:13:28;13.70;;;10.40;;
7215;SDS011;3649;48.798;9.798;2023-01-19T09:15:55;13.37;;;9.70;;
7215;SDS011;3649;48.798;9.798;2023-01-19T09:18:23;16.70;;;11.00;;
7215;SDS011;3649;48.798;9.798;2023-01-19T09:20:49;12.60;;;9.80;;
7215;SDS011;3649;48.798;9.798;2023-01-19T09:23:18;11.67;;;9.30;;
7215;SDS011;3649;48.798;9.798;2023-01-19T09:25:46;15.47;;;10.17;;
7215;SDS011;3649;48.798;9.798;2023-01-19T09:28:14;13.37;;;9.37;;
7215;SDS011;3649;48.798;9.798;2023-01-19T09:30:43;10.47;;;7.73;;
7215;SDS011;3649;48.798;9.798;2023-01-19T09:33:11;10.20;;;8.27;;
7215;SDS011;3649;48.798;9.798;2023-01-19T09:35:40;11.17;;;7.90;;
7215;SDS011;3649;48.798;9.798;2023-01-19T09:38:08;11.37;;;7.23;;
7215;SDS011;3649;48.798;9.798;2023-01-19T09:40:43;8.33;;;7.50;;
7215;SDS011;3649;48.798;9.798;2023-01-19T09:43:20;8.83;;;7.30;;
7215;SDS011;3649;48.798;9.798;2023-01-19T09:46:24;10.00;;;7.23;;
7215;SDS011;3649;48.798;9.798;2023-01-19T09:49:14;11.57;;;7.40;;
7215;SDS011;3649;48.798;9.798;2023-01-19T09:51:47;7.93;;;7.13;;
7215;SDS011;3649;48.798;9.798;2023-01-19T09:54:17;10.30;;;7.13;;
7215;SDS011;3649;48.798;9.798;2023-01-19T09:57:09;9.40;;;6.47;;
7215;SDS011;3649;48.798;9.798;2023-01-19T09:59:37;12.17;;;7.13;;
7215;SDS011;3649;48.798;9.798;2023-01-19T10:10:47;9.20;;;7.40;;
7215;SDS011;3649;48.798;9.798;2023-01-19T10:13:28;8.47;;;6.67;;
7215;SDS011;3649;48.798;9.798;2023-01-19T10:18:28;9.60;;;6.60;;
7215;SDS011;3649;48.798;9.798;2023-01-19T10:21:09;8.00;;;6.87;;
7215;SDS011;3649;48.798;9.798;2023-01-19T10:23:45;10.03;;;6.93;;
7215;SDS011;3649;48.798;9.798;2023-01-19T10:26:25;9.27;;;6.47;;
7215;SDS011;3649;48.798;9.798;2023-01-19T10:29:06;10.97;;;7.13;;
7215;SDS011;3649;48.798;9.798;2023-01-19T10:31:37;11.93;;;7.10;;
7215;SDS011;3649;48.798;9.798;2023-01-19T10:34:08;7.50;;;6.63;;
7215;SDS011;3649;48.798;9.798;2023-01-19T10:36:48;11.00;;;7.30;;
7215;SDS011;3649;48.798;9.798;2023-01-19T10:39:20;9.93;;;7.30;;
7215;SDS011;3649;48.798;9.798;2023-01-19T10:41:51;8.10;;;6.70;;
7215;SDS011;3649;48.798;9.798;2023-01-19T10:44:26;6.63;;;5.93;;
7215;SDS011;3649;48.798;9.798;2023-01-19T10:46:55;7.30;;;6.33;;
7215;SDS011;3649;48.798;9.798;2023-01-19T10:49:28;8.87;;;6.57;;
7215;SDS011;3649;48.798;9.798;2023-01-19T10:51:57;8.73;;;5.90;;
7215;SDS011;3649;48.798;9.798;2023-01-19T10:54:25;8.63;;;6.07;;
7215;SDS011;3649;48.798;9.798;2023-01-19T10:56:58;7.53;;;6.00;;
7215;SDS011;3649;48.798;9.798;2023-01-19T10:59:29;9.47;;;6.43;;
7215;SDS011;3649;48.798;9.798;2023-01-19T11:02:27;8.03;;;5.33;;
7215;SDS011;3649;48.798;9.798;2023-01-19T11:04:56;7.00;;;5.23;;
7215;SDS011;3649;48.798;9.798;2023-01-19T11:12:41;8.00;;;5.63;;
7215;SDS011;3649;48.798;9.798;2023-01-19T11:15:22;10.53;;;5.83;;
7215;SDS011;3649;48.798;9.798;2023-01-19T11:17:56;5.43;;;4.77;;
7215;SDS011;3649;48.798;9.798;2023-01-19T11:20:34;7.33;;;5.57;;
7215;SDS011;3649;48.798;9.798;2023-01-19T11:23:21;6.83;;;5.37;;
7215;SDS011;3649;48.798;9.798;2023-01-19T11:25:57;6.63;;;4.60;;
7215;SDS011;3649;48.798;9.798;2023-01-19T11:28:39;6.20;;;5.27;;
7215;SDS011;3649;48.798;9.798;2023-01-19T11:36:19;6.10;;;5.17;;
7215;SDS011;3649;48.798;9.798;2023-01-19T11:38:57;6.20;;;5.63;;
7215;SDS011;3649;48.798;9.798;2023-01-19T11:41:46;5.63;;;5.03;;
7215;SDS011;3649;48.798;9.798;2023-01-19T11:44:20;5.57;;;5.07;;
7215;SDS011;3649;48.798;9.798;2023-01-19T11:46:55;5.83;;;5.33;;
7215;SDS011;3649;48.798;9.798;2023-01-19T11:49:50;6.83;;;5.23;;
7215;SDS011;3649;48.798;9.798;2023-01-19T11:52:27;8.37;;;5.37;;
7215;SDS011;3649;48.798;9.798;2023-01-19T11:55:02;7.63;;;5.23;;
7215;SDS011;3649;48.798;9.798;2023-01-19T11:57:50;10.73;;;5.47;;
7215;SDS011;3649;48.798;9.798;2023-01-19T12:03:12;7.87;;;4.20;;
7215;SDS011;3649;48.798;9.798;2023-01-19T12:05:45;6.90;;;4.87;;
7215;SDS011;3649;48.798;9.798;2023-01-19T12:08:15;7.87;;;5.90;;
7215;SDS011;3649;48.798;9.798;2023-01-19T12:10:48;11.17;;;6.30;;
7215;SDS011;3649;48.798;9.798;2023-01-19T12:13:21;7.27;;;5.97;;
7215;SDS011;3649;48.798;9.798;2023-01-19T12:19:05;9.20;;;5.70;;
7215;SDS011;3649;48.798;9.798;2023-01-19T12:21:23;7.30;;;5.27;;
7215;SDS011;3649;48.798;9.798;2023-01-19T12:29:11;7.70;;;5.23;;
7215;SDS011;3649;48.798;9.798;2023-01-19T12:31:41;10.07;;;5.07;;
7215;SDS011;3649;48.798;9.798;2023-01-19T12:34:42;5.53;;;4.97;;
7215;SDS011;3649;48.798;9.798;2023-01-19T12:39:58;6.67;;;5.30;;
7215;SDS011;3649;48.798;9.798;2023-01-19T12:42:30;8.87;;;5.40;;
7215;SDS011;3649;48.798;9.798;2023-01-19T12:48:00;7.00;;;4.90;;
7215;SDS011;3649;48.798;9.798;2023-01-19T12:50:31;6.40;;;4.80;;
7215;SDS011;3649;48.798;9.798;2023-01-19T12:53:03;5.73;;;4.77;;
7215;SDS011;3649;48.798;9.798;2023-01-19T12:55:40;8.63;;;4.93;;
7215;SDS011;3649;48.798;9.798;2023-01-19T12:58:21;7.70;;;5.20;;
7215;SDS011;3649;48.798;9.798;2023-01-19T13:01:10;6.00;;;5.23;;
7215;SDS011;3649;48.798;9.798;2023-01-19T13:09:34;8.63;;;4.80;;
7215;SDS011;3649;48.798;9.798;2023-01-19T13:14:40;5.70;;;4.60;;
7215;SDS011;3649;48.798;9.798;2023-01-19T13:17:16;4.23;;;3.83;;
7215;SDS011;3649;48.798;9.798;2023-01-19T13:20:00;4.80;;;4.40;;
7215;SDS011;3649;48.798;9.798;2023-01-19T13:25:28;5.73;;;4.87;;
7215;SDS011;3649;48.798;9.798;2023-01-19T13:27:59;7.33;;;4.57;;
7215;SDS011;3649;48.798;9.798;2023-01-19T13:30:27;10.43;;;4.80;;
7215;SDS011;3649;48.798;9.798;2023-01-19T13:33:05;7.13;;;5.40;;
7215;SDS011;3649;48.798;9.798;2023-01-19T13:35:46;8.37;;;5.47;;
7215;SDS011;3649;48.798;9.798;2023-01-19T13:38:15;10.67;;;5.63;;
7215;SDS011;3649;48.798;9.798;2023-01-19T13:40:42;9.57;;;6.30;;
7215;SDS011;3649;48.798;9.798;2023-01-19T13:43:43;13.13;;;6.17;;
7215;SDS011;3649;48.798;9.798;2023-01-19T13:46:03;6.37;;;5.00;;
7215;SDS011;3649;48.798;9.798;2023-01-19T13:48:31;9.50;;;5.20;;
7215;SDS011;3649;48.798;9.798;2023-01-19T13:51:03;7.20;;;5.03;;
7215;SDS011;3649;48.798;9.798;2023-01-19T13:53:31;8.57;;;5.40;;
7215;SDS011;3649;48.798;9.798;2023-01-19T13:56:18;11.73;;;5.60;;
7215;SDS011;3649;48.798;9.798;2023-01-19T14:01:24;7.83;;;5.30;;
7215;SDS011;3649;48.798;9.798;2023-01-19T14:03:55;6.37;;;5.50;;
7215;SDS011;3649;48.798;9.798;2023-01-19T14:06:39;8.63;;;5.47;;
7215;SDS011;3649;48.798;9.798;2023-01-19T14:09:14;6.70;;;5.57;;
7215;SDS011;3649;48.798;9.798;2023-01-19T14:11:44;8.00;;;5.73;;
7215;SDS011;3649;48.798;9.798;2023-01-19T14:14:28;9.53;;;5.57;;
7215;SDS011;3649;48.798;9.798;2023-01-19T14:16:55;5.73;;;4.83;;
7215;SDS011;3649;48.798;9.798;2023-01-19T14:19:23;5.23;;;4.73;;
7215;SDS011;3649;48.798;9.798;2023-01-19T14:21:56;5.50;;;4.93;;
7215;SDS011;3649;48.798;9.798;2023-01-19T14:24:25;5.97;;;4.73;;
7215;SDS011;3649;48.798;9.798;2023-01-19T14:27:06;7.77;;;4.77;;
7215;SDS011;3649;48.798;9.798;2023-01-19T14:29:33;6.23;;;4.50;;
7215;SDS011;3649;48.798;9.798;2023-01-19T14:32:05;6.90;;;4.30;;
7215;SDS011;3649;48.798;9.798;2023-01-19T14:34:45;6.93;;;6.10;;
7215;SDS011;3649;48.798;9.798;2023-01-19T14:39:43;6.83;;;4.90;;
7215;SDS011;3649;48.798;9.798;2023-01-19T14:42:31;5.87;;;4.73;;
7215;SDS011;3649;48.798;9.798;2023-01-19T14:45:02;6.50;;;4.13;;
7215;SDS011;3649;48.798;9.798;2023-01-19T14:47:34;5.60;;;4.67;;
7215;SDS011;3649;48.798;9.798;2023-01-19T14:52:49;6.13;;;5.07;;
7215;SDS011;3649;48.798;9.798;2023-01-19T14:55:43;7.97;;;4.90;;
7215;SDS011;3649;48.798;9.798;2023-01-19T14:58:21;7.20;;;4.70;;
7215;SDS011;3649;48.798;9.798;2023-01-19T15:00:50;8.60;;;5.80;;
7215;SDS011;3649;48.798;9.798;2023-01-19T15:03:21;10.60;;;5.07;;
7215;SDS011;3649;48.798;9.798;2023-01-19T15:05:56;7.30;;;4.80;;
7215;SDS011;3649;48.798;9.798;2023-01-19T15:08:29;4.83;;;4.17;;
7215;SDS011;3649;48.798;9.798;2023-01-19T15:11:08;5.63;;;4.70;;
7215;SDS011;3649;48.798;9.798;2023-01-19T15:13:36;5.60;;;4.97;;
7215;SDS011;3649;48.798;9.798;2023-01-19T15:16:04;12.63;;;6.83;;
7215;SDS011;3649;48.798;9.798;2023-01-19T15:18:34;8.80;;;6.27;;
7215;SDS011;3649;48.798;9.798;2023-01-19T15:21:01;9.07;;;7.17;;
7215;SDS011;3649;48.798;9.798;2023-01-19T15:23:30;6.67;;;5.63;;
7215;SDS011;3649;48.798;9.798;2023-01-19T15:26:04;15.10;;;9.73;;
7215;SDS011;3649;48.798;9.798;2023-01-19T15:28:31;13.23;;;10.17;;
7215;SDS011;3649;48.798;9.798;2023-01-19T15:30:58;9.73;;;5.90;;
7215;SDS011;3649;48.798;9.798;2023-01-19T15:33:26;10.17;;;7.80;;
7215;SDS011;3649;48.798;9.798;2023-01-19T15:35:57;5.00;;;4.50;;
7215;SDS011;3649;48.798;9.798;2023-01-19T15:38:24;5.57;;;4.43;;
7215;SDS011;3649;48.798;9.798;2023-01-19T15:40:51;6.90;;;5.50;;
7215;SDS011;3649;48.798;9.798;2023-01-19T15:43:18;6.73;;;4.67;;
7215;SDS011;3649;48.798;9.798;2023-01-19T15:45:53;6.57;;;5.00;;
7215;SDS011;3649;48.798;9.798;2023-01-19T15:48:27;5.30;;;4.80;;
7215;SDS011;3649;48.798;9.798;2023-01-19T15:50:54;7.43;;;5.67;;
7215;SDS011;3649;48.798;9.798;2023-01-19T15:53:21;6.57;;;5.10;;
7215;SDS011;3649;48.798;9.798;2023-01-19T15:55:52;11.30;;;6.67;;
7215;SDS011;3649;48.798;9.798;2023-01-19T15:58:22;10.70;;;6.77;;
7215;SDS011;3649;48.798;9.798;2023-01-19T16:00:53;6.80;;;5.60;;
7215;SDS011;3649;48.798;9.798;2023-01-19T16:03:22;7.43;;;6.37;;
7215;SDS011;3649;48.798;9.798;2023-01-19T16:05:49;6.60;;;5.47;;
7215;SDS011;3649;48.798;9.798;2023-01-19T16:08:17;8.20;;;6.20;;
7215;SDS011;3649;48.798;9.798;2023-01-19T16:10:44;7.70;;;5.50;;
7215;SDS011;3649;48.798;9.798;2023-01-19T16:13:10;8.80;;;6.13;;
7215;SDS011;3649;48.798;9.798;2023-01-19T16:15:38;9.37;;;5.97;;
7215;SDS011;3649;48.798;9.798;2023-01-19T16:18:07;11.07;;;6.63;;
7215;SDS011;3649;48.798;9.798;2023-01-19T16:20:34;8.23;;;5.53;;
7215;SDS011;3649;48.798;9.798;2023-01-19T16:23:01;6.20;;;5.67;;
7215;SDS011;3649;48.798;9.798;2023-01-19T16:25:40;7.20;;;6.17;;
7215;SDS011;3649;48.798;9.798;2023-01-19T16:28:07;9.83;;;6.37;;
7215;SDS011;3649;48.798;9.798;2023-01-19T16:30:34;8.07;;;6.90;;
7215;SDS011;3649;48.798;9.798;2023-01-19T16:33:01;6.70;;;5.90;;
7215;SDS011;3649;48.798;9.798;2023-01-19T16:35:27;5.70;;;5.10;;
7215;SDS011;3649;48.798;9.798;2023-01-19T16:37:54;7.97;;;6.03;;
7215;SDS011;3649;48.798;9.798;2023-01-19T16:40:21;6.30;;;5.70;;